sensor_id;sensor_type;location;lat;lon;timestamp;temperature;humidity
2327;DHT22;1174;51.588;7.328;2023-03-23T00:02:23;12.40;99.90
2327;DHT22;1174;51.588;7.328;2023-03-23T00:04:51;12.40;99.90
2327;DHT22;1174;51.588;7.328;2023-03-23T00:07:18;12.30;99.90
2327;DHT22;1174;51.588;7.328;2023-03-23T00:09:47;12.30;99.90
2327;DHT22;1174;51.588;7.328;2023-03-23T00:12:19;12.40;99.90
2327;DHT22;1174;51.588;7.328;2023-03-23T00:14:47;12.50;99.90
2327;DHT22;1174;51.588;7.328;2023-03-23T00:17:15;12.30;99.90
2327;DHT22;1174;51.588;7.328;2023-03-23T00:19:45;12.30;99.90
2327;DHT22;1174;51.588;7.328;2023-03-23T00:22:13;12.30;99.90
2327;DHT22;1174;51.588;7.328;2023-03-23T00:24:41;12.40;99.90
2327;DHT22;1174;51.588;7.328;2023-03-23T00:27:08;12.30;99.90
2327;DHT22;1174;51.588;7.328;2023-03-23T00:29:38;12.30;99.90
2327;DHT22;1174;51.588;7.328;2023-03-23T00:32:06;12.30;99.90
2327;DHT22;1174;51.588;7.328;2023-03-23T00:34:39;12.30;99.90
2327;DHT22;1174;51.588;7.328;2023-03-23T00:37:09;12.30;99.90
2327;DHT22;1174;51.588;7.328;2023-03-23T00:39:38;12.30;99.90
2327;DHT22;1174;51.588;7.328;2023-03-23T00:42:12;12.40;99.90
2327;DHT22;1174;51.588;7.328;2023-03-23T00:44:39;12.40;99.90
2327;DHT22;1174;51.588;7.328;2023-03-23T00:47:06;12.50;99.90
2327;DHT22;1174;51.588;7.328;2023-03-23T00:49:37;12.40;99.90
2327;DHT22;1174;51.588;7.328;2023-03-23T00:52:06;12.50;99.90
2327;DHT22;1174;51.588;7.328;2023-03-23T00:54:36;12.50;99.90
2327;DHT22;1174;51.588;7.328;2023-03-23T00:57:04;12.50;99.90
2327;DHT22;1174;51.588;7.328;2023-03-23T00:59:31;12.50;99.90
2327;DHT22;1174;51.588;7.328;2023-03-23T01:01:57;12.50;99.90
2327;DHT22;1174;51.588;7.328;2023-03-23T01:04:25;12.60;99.90
2327;DHT22;1174;51.588;7.328;2023-03-23T01:06:54;12.60;99.90
2327;DHT22;1174;51.588;7.328;2023-03-23T01:09:23;12.60;99.90
2327;DHT22;1174;51.588;7.328;2023-03-23T01:11:51;12.70;99.90
2327;DHT22;1174;51.588;7.328;2023-03-23T01:14:19;12.70;99.90
2327;DHT22;1174;51.588;7.328;2023-03-23T01:16:46;12.80;99.90
2327;DHT22;1174;51.588;7.328;2023-03-23T01:19:13;12.70;99.90
2327;DHT22;1174;51.588;7.328;2023-03-23T01:21:41;12.80;99.90
2327;DHT22;1174;51.588;7.328;2023-03-23T01:24:08;12.90;99.90
2327;DHT22;1174;51.588;7.328;2023-03-23T01:26:37;12.90;99.90
2327;DHT22;1174;51.588;7.328;2023-03-23T01:29:04;12.90;99.90
2327;DHT22;1174;51.588;7.328;2023-03-23T01:31:31;12.90;99.90
2327;DHT22;1174;51.588;7.328;2023-03-23T01:33:58;12.90;99.90
2327;DHT22;1174;51.588;7.328;2023-03-23T01:36:27;12.90;99.90
2327;DHT22;1174;51.588;7.328;2023-03-23T01:38:59;13.00;99.90
2327;DHT22;1174;51.588;7.328;2023-03-23T01:41:26;12.90;99.90
2327;DHT22;1174;51.588;7.328;2023-03-23T01:43:57;12.80;99.90
2327;DHT22;1174;51.588;7.328;2023-03-23T01:46:25;12.80;99.90
2327;DHT22;1174;51.588;7.328;2023-03-23T01:48:54;12.90;99.90
2327;DHT22;1174;51.588;7.328;2023-03-23T01:51:24;12.90;99.90
2327;DHT22;1174;51.588;7.328;2023-03-23T01:53:55;13.00;99.90
2327;DHT22;1174;51.588;7.328;2023-03-23T01:56:25;13.00;99.90
2327;DHT22;1174;51.588;7.328;2023-03-23T01:58:56;12.80;99.90
2327;DHT22;1174;51.588;7.328;2023-03-23T02:01:24;12.80;99.90
2327;DHT22;1174;51.588;7.328;2023-03-23T02:03:53;12.80;99.90
2327;DHT22;1174;51.588;7.328;2023-03-23T02:06:21;12.80;99.90
2327;DHT22;1174;51.588;7.328;2023-03-23T02:08:49;12.80;99.90
2327;DHT22;1174;51.588;7.328;2023-03-23T02:11:18;12.80;99.90
2327;DHT22;1174;51.588;7.328;2023-03-23T02:13:46;12.80;99.90
2327;DHT22;1174;51.588;7.328;2023-03-23T02:16:21;12.80;99.90
2327;DHT22;1174;51.588;7.328;2023-03-23T02:18:56;12.90;99.90
2327;DHT22;1174;51.588;7.328;2023-03-23T02:21:59;12.90;99.90
2327;DHT22;1174;51.588;7.328;2023-03-23T02:24:57;12.90;99.90
2327;DHT22;1174;51.588;7.328;2023-03-23T02:27:43;12.90;99.90
2327;DHT22;1174;51.588;7.328;2023-03-23T02:30:37;13.00;99.90
2327;DHT22;1174;51.588;7.328;2023-03-23T02:33:29;12.90;99.90
2327;DHT22;1174;51.588;7.328;2023-03-23T02:36:01;13.00;99.90
2327;DHT22;1174;51.588;7.328;2023-03-23T02:38:37;13.00;99.90
2327;DHT22;1174;51.588;7.328;2023-03-23T02:41:07;13.00;99.90
2327;DHT22;1174;51.588;7.328;2023-03-23T02:43:39;13.00;99.90
2327;DHT22;1174;51.588;7.328;2023-03-23T02:46:08;12.80;99.90
2327;DHT22;1174;51.588;7.328;2023-03-23T02:48:41;12.80;99.90
2327;DHT22;1174;51.588;7.328;2023-03-23T02:51:10;12.80;99.90
2327;DHT22;1174;51.588;7.328;2023-03-23T02:53:41;12.80;99.90
2327;DHT22;1174;51.588;7.328;2023-03-23T02:56:12;12.70;99.90
2327;DHT22;1174;51.588;7.328;2023-03-23T02:58:40;12.70;99.90
2327;DHT22;1174;51.588;7.328;2023-03-23T03:04:03;12.70;99.90
2327;DHT22;1174;51.588;7.328;2023-03-23T03:06:37;12.70;99.90
2327;DHT22;1174;51.588;7.328;2023-03-23T03:09:14;12.70;99.90
2327;DHT22;1174;51.588;7.328;2023-03-23T03:11:46;12.70;99.90
2327;DHT22;1174;51.588;7.328;2023-03-23T03:14:18;12.70;99.90
2327;DHT22;1174;51.588;7.328;2023-03-23T03:16:51;12.70;99.90
2327;DHT22;1174;51.588;7.328;2023-03-23T03:19:25;12.70;99.90
2327;DHT22;1174;51.588;7.328;2023-03-23T03:21:54;12.70;99.90
2327;DHT22;1174;51.588;7.328;2023-03-23T03:24:24;12.80;99.90
2327;DHT22;1174;51.588;7.328;2023-03-23T03:26:54;12.60;99.90
2327;DHT22;1174;51.588;7.328;2023-03-23T03:29:28;12.60;99.90
2327;DHT22;1174;51.588;7.328;2023-03-23T03:31:58;12.60;99.90
2327;DHT22;1174;51.588;7.328;2023-03-23T03:34:27;12.70;99.90
2327;DHT22;1174;51.588;7.328;2023-03-23T03:36:58;12.80;99.90
2327;DHT22;1174;51.588;7.328;2023-03-23T03:39:26;12.80;99.90
2327;DHT22;1174;51.588;7.328;2023-03-23T03:41:54;12.80;99.90
2327;DHT22;1174;51.588;7.328;2023-03-23T03:44:21;12.90;99.90
2327;DHT22;1174;51.588;7.328;2023-03-23T03:46:49;12.90;99.90
2327;DHT22;1174;51.588;7.328;2023-03-23T03:49:16;12.90;99.90
2327;DHT22;1174;51.588;7.328;2023-03-23T03:51:44;12.80;99.90
2327;DHT22;1174;51.588;7.328;2023-03-23T03:54:11;12.80;99.90
2327;DHT22;1174;51.588;7.328;2023-03-23T03:56:38;12.90;99.90
2327;DHT22;1174;51.588;7.328;2023-03-23T03:59:06;12.90;99.90
2327;DHT22;1174;51.588;7.328;2023-03-23T04:01:36;12.90;99.90
2327;DHT22;1174;51.588;7.328;2023-03-23T04:04:04;12.90;99.90
2327;DHT22;1174;51.588;7.328;2023-03-23T04:06:32;12.90;99.90
2327;DHT22;1174;51.588;7.328;2023-03-23T04:09:04;12.90;99.90
2327;DHT22;1174;51.588;7.328;2023-03-23T04:11:32;12.90;99.90
2327;DHT22;1174;51.588;7.328;2023-03-23T04:13:59;12.90;99.90
2327;DHT22;1174;51.588;7.328;2023-03-23T04:16:26;12.90;99.90
2327;DHT22;1174;51.588;7.328;2023-03-23T04:18:55;12.80;99.90
2327;DHT22;1174;51.588;7.328;2023-03-23T04:21:25;12.90;99.90
2327;DHT22;1174;51.588;7.328;2023-03-23T04:23:55;12.90;99.90
2327;DHT22;1174;51.588;7.328;2023-03-23T04:26:26;12.90;99.90
2327;DHT22;1174;51.588;7.328;2023-03-23T04:28:54;12.90;99.90
2327;DHT22;1174;51.588;7.328;2023-03-23T04:31:21;13.00;99.90
2327;DHT22;1174;51.588;7.328;2023-03-23T04:33:50;12.90;99.90
2327;DHT22;1174;51.588;7.328;2023-03-23T04:36:18;13.00;99.90
2327;DHT22;1174;51.588;7.328;2023-03-23T04:38:45;13.00;99.90
2327;DHT22;1174;51.588;7.328;2023-03-23T04:41:12;13.00;99.90
2327;DHT22;1174;51.588;7.328;2023-03-23T04:43:40;12.90;99.90
2327;DHT22;1174;51.588;7.328;2023-03-23T04:46:08;12.90;99.90
2327;DHT22;1174;51.588;7.328;2023-03-23T04:48:35;12.90;99.90
2327;DHT22;1174;51.588;7.328;2023-03-23T04:51:05;12.90;99.90
2327;DHT22;1174;51.588;7.328;2023-03-23T04:53:32;12.90;99.90
2327;DHT22;1174;51.588;7.328;2023-03-23T04:56:00;12.90;99.90
2327;DHT22;1174;51.588;7.328;2023-03-23T04:58:27;13.00;99.90
2327;DHT22;1174;51.588;7.328;2023-03-23T05:00:56;13.00;99.90
2327;DHT22;1174;51.588;7.328;2023-03-23T05:03:23;12.90;99.90
2327;DHT22;1174;51.588;7.328;2023-03-23T05:05:50;12.90;99.90
2327;DHT22;1174;51.588;7.328;2023-03-23T05:08:19;12.90;99.90
2327;DHT22;1174;51.588;7.328;2023-03-23T05:10:52;12.90;99.90
2327;DHT22;1174;51.588;7.328;2023-03-23T05:13:19;12.90;99.90
2327;DHT22;1174;51.588;7.328;2023-03-23T05:15:47;13.00;99.90
2327;DHT22;1174;51.588;7.328;2023-03-23T05:18:15;13.00;99.90
2327;DHT22;1174;51.588;7.328;2023-03-23T05:20:43;13.00;99.90
2327;DHT22;1174;51.588;7.328;2023-03-23T05:23:12;13.00;99.90
2327;DHT22;1174;51.588;7.328;2023-03-23T05:25:40;13.00;99.90
2327;DHT22;1174;51.588;7.328;2023-03-23T05:28:07;13.00;99.90
2327;DHT22;1174;51.588;7.328;2023-03-23T05:30:37;13.00;99.90
2327;DHT22;1174;51.588;7.328;2023-03-23T05:33:05;13.10;99.90
2327;DHT22;1174;51.588;7.328;2023-03-23T05:35:33;13.10;99.90
2327;DHT22;1174;51.588;7.328;2023-03-23T05:38:00;13.00;99.90
2327;DHT22;1174;51.588;7.328;2023-03-23T05:40:29;13.00;99.90
2327;DHT22;1174;51.588;7.328;2023-03-23T05:42:55;13.00;99.90
2327;DHT22;1174;51.588;7.328;2023-03-23T05:45:24;13.10;99.90
2327;DHT22;1174;51.588;7.328;2023-03-23T05:47:51;13.10;99.90
2327;DHT22;1174;51.588;7.328;2023-03-23T05:50:19;13.20;99.90
2327;DHT22;1174;51.588;7.328;2023-03-23T05:52:48;13.20;99.90
2327;DHT22;1174;51.588;7.328;2023-03-23T05:55:16;13.10;99.90
2327;DHT22;1174;51.588;7.328;2023-03-23T05:57:43;13.10;99.90
2327;DHT22;1174;51.588;7.328;2023-03-23T06:00:11;13.10;99.90
2327;DHT22;1174;51.588;7.328;2023-03-23T06:02:46;13.10;99.90
2327;DHT22;1174;51.588;7.328;2023-03-23T06:05:16;13.20;99.90
2327;DHT22;1174;51.588;7.328;2023-03-23T06:07:45;13.20;99.90
2327;DHT22;1174;51.588;7.328;2023-03-23T06:10:13;13.20;99.90
2327;DHT22;1174;51.588;7.328;2023-03-23T06:12:40;13.20;99.90
2327;DHT22;1174;51.588;7.328;2023-03-23T06:15:09;13.20;99.90
2327;DHT22;1174;51.588;7.328;2023-03-23T06:17:36;13.20;99.90
2327;DHT22;1174;51.588;7.328;2023-03-23T06:20:04;13.20;99.90
2327;DHT22;1174;51.588;7.328;2023-03-23T06:22:35;13.20;99.90
2327;DHT22;1174;51.588;7.328;2023-03-23T06:25:04;13.30;99.90
2327;DHT22;1174;51.588;7.328;2023-03-23T06:27:32;13.20;99.90
2327;DHT22;1174;51.588;7.328;2023-03-23T06:30:00;13.10;99.90
2327;DHT22;1174;51.588;7.328;2023-03-23T06:32:29;13.20;99.90
2327;DHT22;1174;51.588;7.328;2023-03-23T06:34:57;13.30;99.90
2327;DHT22;1174;51.588;7.328;2023-03-23T06:37:24;13.20;99.90
2327;DHT22;1174;51.588;7.328;2023-03-23T06:39:51;13.20;99.90
2327;DHT22;1174;51.588;7.328;2023-03-23T06:42:18;13.20;99.90
2327;DHT22;1174;51.588;7.328;2023-03-23T06:44:46;13.20;99.90
2327;DHT22;1174;51.588;7.328;2023-03-23T06:47:13;13.30;99.90
2327;DHT22;1174;51.588;7.328;2023-03-23T06:49:40;13.40;99.90
2327;DHT22;1174;51.588;7.328;2023-03-23T06:52:07;13.40;99.90
2327;DHT22;1174;51.588;7.328;2023-03-23T06:54:34;13.30;99.90
2327;DHT22;1174;51.588;7.328;2023-03-23T06:57:01;13.40;99.90
2327;DHT22;1174;51.588;7.328;2023-03-23T06:59:28;13.50;99.90
2327;DHT22;1174;51.588;7.328;2023-03-23T07:01:57;13.60;99.90
2327;DHT22;1174;51.588;7.328;2023-03-23T07:04:24;13.50;99.90
2327;DHT22;1174;51.588;7.328;2023-03-23T07:06:50;13.50;99.90
2327;DHT22;1174;51.588;7.328;2023-03-23T07:09:17;13.50;99.90
2327;DHT22;1174;51.588;7.328;2023-03-23T07:11:44;13.60;99.90
2327;DHT22;1174;51.588;7.328;2023-03-23T07:14:13;13.70;99.90
2327;DHT22;1174;51.588;7.328;2023-03-23T07:16:43;13.70;99.90
2327;DHT22;1174;51.588;7.328;2023-03-23T07:19:11;13.70;99.90
2327;DHT22;1174;51.588;7.328;2023-03-23T07:21:38;13.80;99.90
2327;DHT22;1174;51.588;7.328;2023-03-23T07:24:09;13.80;99.90
2327;DHT22;1174;51.588;7.328;2023-03-23T07:26:38;13.90;99.90
2327;DHT22;1174;51.588;7.328;2023-03-23T07:29:04;13.70;99.90
2327;DHT22;1174;51.588;7.328;2023-03-23T07:31:32;13.80;99.90
2327;DHT22;1174;51.588;7.328;2023-03-23T07:33:59;13.80;99.90
2327;DHT22;1174;51.588;7.328;2023-03-23T07:36:27;13.80;99.90
2327;DHT22;1174;51.588;7.328;2023-03-23T07:38:54;13.70;99.90
2327;DHT22;1174;51.588;7.328;2023-03-23T07:41:22;13.80;99.90
2327;DHT22;1174;51.588;7.328;2023-03-23T07:43:49;13.80;99.90
2327;DHT22;1174;51.588;7.328;2023-03-23T07:46:18;13.80;99.90
2327;DHT22;1174;51.588;7.328;2023-03-23T07:48:45;13.80;99.90
2327;DHT22;1174;51.588;7.328;2023-03-23T07:51:13;13.80;99.90
2327;DHT22;1174;51.588;7.328;2023-03-23T07:53:43;13.90;99.90
2327;DHT22;1174;51.588;7.328;2023-03-23T07:56:12;13.90;99.90
2327;DHT22;1174;51.588;7.328;2023-03-23T07:58:40;13.80;99.90
2327;DHT22;1174;51.588;7.328;2023-03-23T08:01:07;13.80;99.90
2327;DHT22;1174;51.588;7.328;2023-03-23T08:03:34;13.90;99.90
2327;DHT22;1174;51.588;7.328;2023-03-23T08:06:02;13.90;99.90
2327;DHT22;1174;51.588;7.328;2023-03-23T08:08:29;13.90;99.90
2327;DHT22;1174;51.588;7.328;2023-03-23T08:10:58;13.90;99.90
2327;DHT22;1174;51.588;7.328;2023-03-23T08:13:25;13.80;99.90
2327;DHT22;1174;51.588;7.328;2023-03-23T08:15:52;13.80;99.90
2327;DHT22;1174;51.588;7.328;2023-03-23T08:18:19;13.80;99.90
2327;DHT22;1174;51.588;7.328;2023-03-23T08:20:46;13.90;99.90
2327;DHT22;1174;51.588;7.328;2023-03-23T08:23:14;13.90;99.90
2327;DHT22;1174;51.588;7.328;2023-03-23T08:25:42;13.90;99.90
2327;DHT22;1174;51.588;7.328;2023-03-23T08:28:20;14.10;99.90
2327;DHT22;1174;51.588;7.328;2023-03-23T08:30:50;14.20;99.90
2327;DHT22;1174;51.588;7.328;2023-03-23T08:33:17;14.30;99.90
2327;DHT22;1174;51.588;7.328;2023-03-23T08:35:54;14.30;99.90
2327;DHT22;1174;51.588;7.328;2023-03-23T08:38:22;14.30;99.90
2327;DHT22;1174;51.588;7.328;2023-03-23T08:40:49;14.50;99.90
2327;DHT22;1174;51.588;7.328;2023-03-23T08:43:18;14.70;99.90
2327;DHT22;1174;51.588;7.328;2023-03-23T08:45:45;14.80;99.90
2327;DHT22;1174;51.588;7.328;2023-03-23T08:48:13;14.80;99.90
2327;DHT22;1174;51.588;7.328;2023-03-23T08:50:40;14.70;99.90
2327;DHT22;1174;51.588;7.328;2023-03-23T08:53:07;14.80;99.90
2327;DHT22;1174;51.588;7.328;2023-03-23T08:55:35;14.60;99.90
2327;DHT22;1174;51.588;7.328;2023-03-23T08:58:02;14.70;99.90
2327;DHT22;1174;51.588;7.328;2023-03-23T09:00:31;14.80;99.90
2327;DHT22;1174;51.588;7.328;2023-03-23T09:03:01;14.90;99.90
2327;DHT22;1174;51.588;7.328;2023-03-23T09:05:30;15.00;99.90
2327;DHT22;1174;51.588;7.328;2023-03-23T09:07:58;15.00;99.90
2327;DHT22;1174;51.588;7.328;2023-03-23T09:10:26;15.10;99.90
2327;DHT22;1174;51.588;7.328;2023-03-23T09:12:54;15.00;99.90
2327;DHT22;1174;51.588;7.328;2023-03-23T09:15:21;14.90;99.90
2327;DHT22;1174;51.588;7.328;2023-03-23T09:17:51;14.70;99.90
2327;DHT22;1174;51.588;7.328;2023-03-23T09:20:21;14.70;99.90
2327;DHT22;1174;51.588;7.328;2023-03-23T09:22:50;14.50;99.90
2327;DHT22;1174;51.588;7.328;2023-03-23T09:25:18;14.60;99.90
2327;DHT22;1174;51.588;7.328;2023-03-23T09:27:49;14.50;99.90
2327;DHT22;1174;51.588;7.328;2023-03-23T09:30:19;14.50;99.90
2327;DHT22;1174;51.588;7.328;2023-03-23T09:32:46;14.50;99.90
2327;DHT22;1174;51.588;7.328;2023-03-23T09:35:16;14.60;99.90
2327;DHT22;1174;51.588;7.328;2023-03-23T09:37:44;14.60;99.90
2327;DHT22;1174;51.588;7.328;2023-03-23T09:40:15;14.40;99.90
2327;DHT22;1174;51.588;7.328;2023-03-23T09:43:02;14.30;99.90
2327;DHT22;1174;51.588;7.328;2023-03-23T09:45:36;14.40;99.90
2327;DHT22;1174;51.588;7.328;2023-03-23T09:48:28;14.70;99.90
2327;DHT22;1174;51.588;7.328;2023-03-23T09:51:02;14.70;99.90
2327;DHT22;1174;51.588;7.328;2023-03-23T09:53:36;14.90;99.90
2327;DHT22;1174;51.588;7.328;2023-03-23T09:56:10;15.20;99.90
2327;DHT22;1174;51.588;7.328;2023-03-23T09:58:43;15.30;99.90
2327;DHT22;1174;51.588;7.328;2023-03-23T10:01:17;15.40;99.90
2327;DHT22;1174;51.588;7.328;2023-03-23T10:03:47;15.30;99.90
2327;DHT22;1174;51.588;7.328;2023-03-23T10:06:17;15.40;99.90
2327;DHT22;1174;51.588;7.328;2023-03-23T10:08:48;15.00;99.90
2327;DHT22;1174;51.588;7.328;2023-03-23T10:11:32;14.10;99.90
2327;DHT22;1174;51.588;7.328;2023-03-23T10:14:15;12.70;99.90
2327;DHT22;1174;51.588;7.328;2023-03-23T10:16:51;12.40;99.90
2327;DHT22;1174;51.588;7.328;2023-03-23T10:19:27;12.00;99.90
2327;DHT22;1174;51.588;7.328;2023-03-23T10:22:01;11.90;99.90
2327;DHT22;1174;51.588;7.328;2023-03-23T10:24:34;11.80;99.90
2327;DHT22;1174;51.588;7.328;2023-03-23T10:27:10;11.90;99.90
2327;DHT22;1174;51.588;7.328;2023-03-23T10:29:42;11.80;99.90
2327;DHT22;1174;51.588;7.328;2023-03-23T10:32:12;11.80;99.90
2327;DHT22;1174;51.588;7.328;2023-03-23T10:34:44;11.90;99.90
2327;DHT22;1174;51.588;7.328;2023-03-23T10:37:16;11.80;99.90
2327;DHT22;1174;51.588;7.328;2023-03-23T10:39:48;11.80;99.90
2327;DHT22;1174;51.588;7.328;2023-03-23T10:42:25;11.90;99.90
2327;DHT22;1174;51.588;7.328;2023-03-23T10:44:53;12.00;99.90
2327;DHT22;1174;51.588;7.328;2023-03-23T10:47:22;12.20;99.90
2327;DHT22;1174;51.588;7.328;2023-03-23T10:49:54;12.20;99.90
2327;DHT22;1174;51.588;7.328;2023-03-23T10:52:31;12.10;99.90
2327;DHT22;1174;51.588;7.328;2023-03-23T10:55:04;12.20;99.90
2327;DHT22;1174;51.588;7.328;2023-03-23T10:57:33;12.20;99.90
2327;DHT22;1174;51.588;7.328;2023-03-23T11:00:05;12.00;99.90
2327;DHT22;1174;51.588;7.328;2023-03-23T11:02:38;12.10;99.90
2327;DHT22;1174;51.588;7.328;2023-03-23T11:05:19;12.20;99.90
2327;DHT22;1174;51.588;7.328;2023-03-23T11:07:52;12.30;99.90
2327;DHT22;1174;51.588;7.328;2023-03-23T11:10:22;12.40;99.90
2327;DHT22;1174;51.588;7.328;2023-03-23T11:12:51;12.20;99.90
2327;DHT22;1174;51.588;7.328;2023-03-23T11:15:29;12.50;99.90
2327;DHT22;1174;51.588;7.328;2023-03-23T11:17:59;12.80;99.90
2327;DHT22;1174;51.588;7.328;2023-03-23T11:20:28;12.80;99.90
2327;DHT22;1174;51.588;7.328;2023-03-23T11:22:58;12.70;99.90
2327;DHT22;1174;51.588;7.328;2023-03-23T11:25:25;12.60;99.90
2327;DHT22;1174;51.588;7.328;2023-03-23T11:27:52;12.50;99.90
2327;DHT22;1174;51.588;7.328;2023-03-23T11:30:24;12.30;99.90
2327;DHT22;1174;51.588;7.328;2023-03-23T11:32:53;12.10;99.90
2327;DHT22;1174;51.588;7.328;2023-03-23T11:35:23;12.20;99.90
2327;DHT22;1174;51.588;7.328;2023-03-23T11:37:54;12.30;99.90
2327;DHT22;1174;51.588;7.328;2023-03-23T11:40:25;12.10;99.90
2327;DHT22;1174;51.588;7.328;2023-03-23T11:43:09;12.00;99.90
2327;DHT22;1174;51.588;7.328;2023-03-23T11:45:38;12.00;99.90
2327;DHT22;1174;51.588;7.328;2023-03-23T11:48:13;12.00;99.90
2327;DHT22;1174;51.588;7.328;2023-03-23T11:50:49;12.00;99.90
2327;DHT22;1174;51.588;7.328;2023-03-23T11:53:26;12.10;99.90
2327;DHT22;1174;51.588;7.328;2023-03-23T11:56:10;12.40;99.90
2327;DHT22;1174;51.588;7.328;2023-03-23T11:58:38;12.50;99.90
2327;DHT22;1174;51.588;7.328;2023-03-23T12:01:12;12.20;99.90
2327;DHT22;1174;51.588;7.328;2023-03-23T12:03:51;12.20;99.90
2327;DHT22;1174;51.588;7.328;2023-03-23T12:06:27;12.10;99.90
2327;DHT22;1174;51.588;7.328;2023-03-23T12:09:08;12.20;99.90
2327;DHT22;1174;51.588;7.328;2023-03-23T12:11:48;12.20;99.90
2327;DHT22;1174;51.588;7.328;2023-03-23T12:14:25;12.10;99.90
2327;DHT22;1174;51.588;7.328;2023-03-23T12:17:03;12.10;99.90
2327;DHT22;1174;51.588;7.328;2023-03-23T12:19:42;12.10;99.90
2327;DHT22;1174;51.588;7.328;2023-03-23T12:22:22;12.20;99.90
2327;DHT22;1174;51.588;7.328;2023-03-23T12:25:02;12.30;99.90
2327;DHT22;1174;51.588;7.328;2023-03-23T12:27:42;12.30;99.90
2327;DHT22;1174;51.588;7.328;2023-03-23T12:30:20;12.40;99.90
2327;DHT22;1174;51.588;7.328;2023-03-23T12:33:03;12.50;99.90
2327;DHT22;1174;51.588;7.328;2023-03-23T12:35:42;12.40;99.90
2327;DHT22;1174;51.588;7.328;2023-03-23T12:38:38;12.40;99.90
2327;DHT22;1174;51.588;7.328;2023-03-23T12:41:16;12.30;99.90
2327;DHT22;1174;51.588;7.328;2023-03-23T12:43:51;12.20;99.90
2327;DHT22;1174;51.588;7.328;2023-03-23T12:49:22;12.40;99.90
2327;DHT22;1174;51.588;7.328;2023-03-23T12:51:57;12.30;99.90
2327;DHT22;1174;51.588;7.328;2023-03-23T12:54:29;12.50;99.90
2327;DHT22;1174;51.588;7.328;2023-03-23T12:57:01;12.60;99.90
2327;DHT22;1174;51.588;7.328;2023-03-23T12:59:35;12.70;99.90
2327;DHT22;1174;51.588;7.328;2023-03-23T13:02:23;12.70;99.90
2327;DHT22;1174;51.588;7.328;2023-03-23T13:04:56;12.70;99.90
2327;DHT22;1174;51.588;7.328;2023-03-23T13:07:28;12.80;99.90
2327;DHT22;1174;51.588;7.328;2023-03-23T13:10:04;12.80;99.90
2327;DHT22;1174;51.588;7.328;2023-03-23T13:12:32;12.90;99.90
2327;DHT22;1174;51.588;7.328;2023-03-23T13:15:18;13.10;99.90
2327;DHT22;1174;51.588;7.328;2023-03-23T13:17:51;13.50;99.90
2327;DHT22;1174;51.588;7.328;2023-03-23T13:20:34;13.50;99.90
2327;DHT22;1174;51.588;7.328;2023-03-23T13:23:09;13.60;99.90
2327;DHT22;1174;51.588;7.328;2023-03-23T13:25:50;13.60;99.90
2327;DHT22;1174;51.588;7.328;2023-03-23T13:28:19;14.30;99.90
2327;DHT22;1174;51.588;7.328;2023-03-23T13:31:03;14.50;99.90
2327;DHT22;1174;51.588;7.328;2023-03-23T13:33:35;14.60;99.90
2327;DHT22;1174;51.588;7.328;2023-03-23T13:36:07;14.30;99.90
2327;DHT22;1174;51.588;7.328;2023-03-23T13:38:36;14.20;99.90
2327;DHT22;1174;51.588;7.328;2023-03-23T13:41:11;13.80;99.90
2327;DHT22;1174;51.588;7.328;2023-03-23T13:43:41;13.70;99.90
2327;DHT22;1174;51.588;7.328;2023-03-23T13:46:23;14.00;99.90
2327;DHT22;1174;51.588;7.328;2023-03-23T13:49:03;14.30;99.90
2327;DHT22;1174;51.588;7.328;2023-03-23T13:51:35;14.30;99.90
2327;DHT22;1174;51.588;7.328;2023-03-23T13:54:14;14.80;99.90
2327;DHT22;1174;51.588;7.328;2023-03-23T13:56:47;15.90;99.90
2327;DHT22;1174;51.588;7.328;2023-03-23T13:59:16;16.00;99.90
2327;DHT22;1174;51.588;7.328;2023-03-23T14:01:45;15.70;99.90
2327;DHT22;1174;51.588;7.328;2023-03-23T14:04:15;15.20;99.90
2327;DHT22;1174;51.588;7.328;2023-03-23T14:06:44;14.70;99.90
2327;DHT22;1174;51.588;7.328;2023-03-23T14:09:16;14.20;99.90
2327;DHT22;1174;51.588;7.328;2023-03-23T14:11:50;14.00;99.90
2327;DHT22;1174;51.588;7.328;2023-03-23T14:14:23;13.90;99.90
2327;DHT22;1174;51.588;7.328;2023-03-23T14:16:52;14.00;99.90
2327;DHT22;1174;51.588;7.328;2023-03-23T14:19:22;14.10;99.90
2327;DHT22;1174;51.588;7.328;2023-03-23T14:21:52;14.10;99.90
2327;DHT22;1174;51.588;7.328;2023-03-23T14:24:22;14.00;99.90
2327;DHT22;1174;51.588;7.328;2023-03-23T14:26:50;14.00;99.90
2327;DHT22;1174;51.588;7.328;2023-03-23T14:29:20;14.20;99.90
2327;DHT22;1174;51.588;7.328;2023-03-23T14:31:54;14.50;99.90
2327;DHT22;1174;51.588;7.328;2023-03-23T14:34:24;14.80;99.90
2327;DHT22;1174;51.588;7.328;2023-03-23T14:36:53;14.60;99.90
2327;DHT22;1174;51.588;7.328;2023-03-23T14:39:24;14.70;99.90
2327;DHT22;1174;51.588;7.328;2023-03-23T14:41:54;14.70;99.90
2327;DHT22;1174;51.588;7.328;2023-03-23T14:44:25;15.20;99.90
2327;DHT22;1174;51.588;7.328;2023-03-23T14:46:56;15.30;99.90
2327;DHT22;1174;51.588;7.328;2023-03-23T14:49:33;15.70;99.90
2327;DHT22;1174;51.588;7.328;2023-03-23T14:52:08;15.80;99.90
2327;DHT22;1174;51.588;7.328;2023-03-23T14:54:36;16.20;99.90
2327;DHT22;1174;51.588;7.328;2023-03-23T14:57:11;16.30;99.90
2327;DHT22;1174;51.588;7.328;2023-03-23T14:59:40;16.10;99.90
2327;DHT22;1174;51.588;7.328;2023-03-23T15:02:13;16.00;99.90
2327;DHT22;1174;51.588;7.328;2023-03-23T15:04:43;15.90;99.90
2327;DHT22;1174;51.588;7.328;2023-03-23T15:07:12;15.80;99.90
2327;DHT22;1174;51.588;7.328;2023-03-23T15:09:42;15.70;99.90
2327;DHT22;1174;51.588;7.328;2023-03-23T15:12:20;15.40;99.90
2327;DHT22;1174;51.588;7.328;2023-03-23T15:14:51;15.10;99.90
2327;DHT22;1174;51.588;7.328;2023-03-23T15:17:22;15.20;99.90
2327;DHT22;1174;51.588;7.328;2023-03-23T15:19:50;15.20;99.90
2327;DHT22;1174;51.588;7.328;2023-03-23T15:22:21;15.00;99.90
2327;DHT22;1174;51.588;7.328;2023-03-23T15:24:50;14.90;99.90
2327;DHT22;1174;51.588;7.328;2023-03-23T15:27:27;14.90;99.90
2327;DHT22;1174;51.588;7.328;2023-03-23T15:29:55;14.90;99.90
2327;DHT22;1174;51.588;7.328;2023-03-23T15:32:38;15.10;99.90
2327;DHT22;1174;51.588;7.328;2023-03-23T15:35:14;15.30;99.90
2327;DHT22;1174;51.588;7.328;2023-03-23T15:37:43;15.30;99.90
2327;DHT22;1174;51.588;7.328;2023-03-23T15:40:17;15.20;99.90
2327;DHT22;1174;51.588;7.328;2023-03-23T15:42:45;15.20;99.90
2327;DHT22;1174;51.588;7.328;2023-03-23T15:45:24;15.40;99.90
2327;DHT22;1174;51.588;7.328;2023-03-23T15:47:53;15.60;99.90
2327;DHT22;1174;51.588;7.328;2023-03-23T15:50:33;15.50;99.90
2327;DHT22;1174;51.588;7.328;2023-03-23T15:53:00;15.30;99.90
2327;DHT22;1174;51.588;7.328;2023-03-23T15:55:34;15.10;99.90
2327;DHT22;1174;51.588;7.328;2023-03-23T15:58:10;15.10;99.90
2327;DHT22;1174;51.588;7.328;2023-03-23T16:00:39;15.10;99.90
2327;DHT22;1174;51.588;7.328;2023-03-23T16:03:12;15.10;99.90
2327;DHT22;1174;51.588;7.328;2023-03-23T16:05:39;15.20;99.90
2327;DHT22;1174;51.588;7.328;2023-03-23T16:08:08;15.20;99.90
2327;DHT22;1174;51.588;7.328;2023-03-23T16:10:37;15.30;99.90
2327;DHT22;1174;51.588;7.328;2023-03-23T16:13:07;15.30;99.90
2327;DHT22;1174;51.588;7.328;2023-03-23T16:15:34;15.30;99.90
2327;DHT22;1174;51.588;7.328;2023-03-23T16:18:01;15.30;99.90
2327;DHT22;1174;51.588;7.328;2023-03-23T16:20:32;15.30;99.90
2327;DHT22;1174;51.588;7.328;2023-03-23T16:22:59;15.20;99.90
2327;DHT22;1174;51.588;7.328;2023-03-23T16:25:27;15.00;99.90
2327;DHT22;1174;51.588;7.328;2023-03-23T16:27:54;14.90;99.90
2327;DHT22;1174;51.588;7.328;2023-03-23T16:30:23;14.90;99.90
2327;DHT22;1174;51.588;7.328;2023-03-23T16:32:50;14.90;99.90